METAR Data
IDs: Format: Raw Decoded Include TAF

Data at: 1851 UTC 16 Oct 2021

KAUS 161753Z 03016G23KT 10SM FEW200 FEW250 22/04 A3035 RMK AO2 SLP271 T02170039 10217 20128 58007
KAUS 161653Z 02014G23KT 10SM FEW250 21/04 A3036 RMK AO2 SLP276 T02060044
KAUS 161553Z 03014KT 10SM FEW200 FEW250 20/06 A3037 RMK AO2 SLP278 T02000061
KAUS 161453Z 03014G20KT 10SM FEW200 FEW250 18/07 A3037 RMK AO2 SLP278 T01830067 51019
KAUS 161353Z 36010KT 10SM FEW200 FEW250 16/07 A3035 RMK AO2 SLP275 T01560067
KAUS 161253Z 01009KT 10SM FEW200 SCT250 14/07 A3033 RMK AO2 SLP267 T01390067
KAUS 161153Z 01009KT 10SM FEW200 14/06 A3031 RMK AO2 SLP260 T01390061 10178 20139 53019
KAUS 161053Z 01012KT 10SM FEW200 14/07 A3028 RMK AO2 SLP249 T01390067
KAUS 160953Z 01013KT 10SM FEW200 16/06 A3026 RMK AO2 SLP242 T01560061
KAUS 160853Z 01014KT 10SM FEW200 16/06 A3025 RMK AO2 SLP238 T01610061 51010
KAUS 160753Z 36014KT 10SM SCT200 16/07 A3024 RMK AO2 SLP233 T01610067
KAUS 160653Z 01014KT 10SM BKN200 17/07 A3024 RMK AO2 SLP232 T01720072
KAUS 160553Z 36013G21KT 10SM SCT200 18/08 A3022 RMK AO2 SLP226 60000 T01780078 10233 20178 403170178 51025
KAUS 160453Z 36015KT 10SM FEW080 BKN200 19/08 A3021 RMK AO2 SLP222 T01890083
KAUS 160353Z COR 01015G25KT 10SM FEW080 SCT200 20/09 A3020 RMK AO2 PK WND 35026/0255 RAB43E48 SLP218 T02000094
KAUS 160253Z 01014KT 10SM FEW080 BKN200 21/11 A3015 RMK AO2 PK WND 36027/0203 SLP202 T02060106 53033
KAUS 160153Z 36018G25KT 10SM FEW080 SCT120 BKN200 21/13 A3011 RMK AO2 SLP188 T02110128
KAUS 160053Z 01011G20KT 10SM FEW080 SCT120 BKN200 22/13 A3009 RMK AO2 SLP182 T02220133
KAUS 152353Z 36014KT 10SM FEW080 SCT120 BKN200 23/14 A3005 RMK AO2 SLP169 60000 T02280139 10317 20228 52027
KAUS 152253Z 35018G26KT 10SM SCT080 BKN120 BKN200 26/14 A3003 RMK AO2 PK WND 36026/2235 SLP160 T02560144
KAUS 152153Z COR 01018G27KT 10SM SCT080 BKN120 26/16 A2999 RMK AO2 PK WND 01027/2145 SLP148 T02610156
KAUS 152053Z 34015G25KT 10SM FEW045 SCT055 BKN120 28/15 A2997 RMK AO2 PK WND 36026/2030 RAB12E24 SLP140 P0000 60000 T02780150 55002
KAUS 151953Z 30005KT 10SM FEW035TCU BKN110 31/21 A2994 RMK AO2 SLP131 TCU N T03060211
KAUS 151853Z 32008KT 10SM SCT035TCU SCT060 31/21 A2995 RMK AO2 SLP133 TCU N-NE T03110211
KAUS 151753Z 00000KT 10SM SCT029 SCT050 29/22 A2997 RMK AO2 SLP140 60000 T02940217 10306 20206 50000
KAUS 151653Z 25004KT 10SM FEW017 SCT022 SCT035 29/23 A2999 RMK AO2 SLP145 T02940228
KAUS 151623Z 20006KT 10SM FEW015 SCT035 28/23 A2999 RMK AO2 T02780233
KAUS 151600Z 25006KT 10SM BKN012 27/23 A2999 RMK AO2 T02670233
KAUS 151553Z 24005KT 10SM SCT010 SCT015 27/23 A2999 RMK AO2 SLP147 T02670233
KAUS 151453Z 00000KT 10SM FEW004 BKN015 24/23 A2997 RMK AO2 SLP141 60000 T02440233 51023
KAUS 151416Z 00000KT 10SM SCT007 SCT015 23/22 A2996 RMK AO2 T02330222
KAUS 151353Z 14003KT 9SM OVC007 22/22 A2995 RMK AO2 RAB14E34 SLP134 P0000 T02220217
KAUS 151253Z 00000KT 8SM BKN005 OVC019 21/20 A2993 RMK AO2 SLP129 T02060200
KAUS 151153Z 00000KT 5SM BCFG BKN009 20/19 A2990 RMK AO2 SLP118 T02000194 10200 20178 53009
KAUS 151128Z 00000KT 6SM BCFG BKN009 OVC015 20/19 A2990 RMK AO2 T02000194
KAUS 151109Z 00000KT 6SM BCFG BKN011 BKN015 18/18 A2989 RMK AO2 T01780178
KAUS 151053Z 00000KT 8SM FEW011 18/18 A2989 RMK AO2 SLP112 T01830183
KAUS 151019Z 00000KT 9SM SCT014 19/19 A2988 RMK AO2 T01890189
KAUS 150953Z 00000KT 4SM BR OVC012 18/18 A2988 RMK AO2 SLP110 T01830183
KAUS 150937Z 00000KT 4SM R18L/3500VP6000FT BR FEW003 BKN012 19/19 A2988 RMK AO2 T01890189
KAUS 150916Z 00000KT 2 1/2SM R18L/2400VP6000FT BR SCT003 BKN012 18/18 A2987 RMK AO2 T01830183
KAUS 150853Z 00000KT 7SM R18L/2600VP6000FT BCFG FEW003 SCT008 18/18 A2987 RMK AO2 SLP108 T01830183 58001
KAUS 150753Z 00000KT 10SM BCFG FEW002 18/18 A2988 RMK AO2 SLP112 T01780178
KAUS 150653Z 00000KT 10SM BCFG FEW002 19/19 A2987 RMK AO2 SLP110 T01890189